Aviation Digital Data Service (ADDS)

Output produced by METARs form (2215 UTC 29 May 2020)
found at http://www.aviationweather.gov/metar/data/
 
EDDK 292150Z 08006KT CAVOK 15/02 Q1024 NOSIG
EDDK 292120Z 08006KT CAVOK 15/02 Q1024 NOSIG
EDDK 292050Z 07005KT CAVOK 16/02 Q1024 NOSIG
EDDK 292020Z 07006KT CAVOK 17/03 Q1023 NOSIG
EDDK 291950Z 08006KT CAVOK 18/02 Q1023 NOSIG
EDDK 291920Z 05006KT CAVOK 19/02 Q1023 NOSIG
EDDK 291850Z 04008KT CAVOK 21/02 Q1023 NOSIG
EDDK 291820Z 03009KT CAVOK 22/01 Q1023 BECMG 08004KT
TAF EDDK 291700Z 2918/3024 05007KT CAVOK 
     BECMG 2920/2923 11004KT 
     BECMG 3009/3012 08009KT 
     BECMG 3018/3021 08004KT
       
TAF EDGS 291400Z 2915/2924 08010KT CAVOK 
     BECMG 2922/2924 08005KT
       
EDLW 292150Z AUTO 07005KT 9999 // NCD 14/04 Q1025
EDLW 292120Z AUTO 05005KT 9999 // NCD 14/04 Q1024
EDLW 292050Z AUTO 06004KT 9999 // NCD 15/03 Q1024
EDLW 292020Z AUTO 06004KT 9999 // NCD 16/03 Q1024
EDLW 291950Z AUTO 06005KT 9999 // NCD 17/02 Q1024
EDLW 291920Z AUTO 07007KT 9999 // NCD 18/02 Q1024
EDLW 291850Z AUTO 05008KT 9999 // NCD 19/03 Q1024
EDLW 291820Z AUTO 05007KT 9999 // NCD 19/03 Q1024
TAF EDLW 291100Z 2912/3012 06009KT CAVOK 
     BECMG 2918/2921 08004KT 
     BECMG 3008/3011 06010KT
       
EDDL 292150Z 05003KT CAVOK 14/04 Q1024 NOSIG
EDDL 292120Z 04006KT CAVOK 16/04 Q1024 NOSIG
EDDL 292050Z 04006KT CAVOK 17/04 Q1024 NOSIG
EDDL 292020Z 04005KT CAVOK 17/03 Q1024 NOSIG
EDDL 291950Z 04005KT CAVOK 18/02 Q1023 NOSIG
EDDL 291920Z 04006KT CAVOK 19/01 Q1023 NOSIG
EDDL 291850Z 05007KT CAVOK 20/01 Q1023 NOSIG
EDDL 291820Z 06010KT CAVOK 21/01 Q1024 BECMG 05005KT
TAF EDDL 291700Z 2918/3024 04009KT CAVOK 
     BECMG 2921/2924 04004KT 
     BECMG 3009/3012 06012KT 
     BECMG 3018/3021 05006KT
       
ETNN 292120Z 08005KT 9999 FEW070 16/01 Q1023 BLU+
ETNN 292020Z 05005KT 9999 FEW070 17/00 Q1023 BLU+
ETNN 291920Z 03007KT 9999 FEW070 19/M00 Q1023 BLU+
ETNN 291820Z 03011KT 9999 FEW070 21/01 Q1023 BLU+
TAF ETNN 291905Z 2920/3005 04006KT 9999 NSW FEW070 BY ETGL